sensor_id;sensor_type;location;lat;lon;timestamp;pressure;altitude;pressure_sealevel;temperature;humidity
15477;BME280;7840;42.702;23.296;2023-07-28T00:00:22;95164.03;;;15.54;100.00
15477;BME280;7840;42.702;23.296;2023-07-28T00:02:49;95161.66;;;15.48;100.00
15477;BME280;7840;42.702;23.296;2023-07-28T00:05:18;95159.28;;;15.41;100.00
15477;BME280;7840;42.702;23.296;2023-07-28T00:07:49;95161.66;;;15.48;100.00
15477;BME280;7840;42.702;23.296;2023-07-28T00:10:16;95153.06;;;15.66;100.00
15477;BME280;7840;42.702;23.296;2023-07-28T00:12:44;95166.56;;;15.30;100.00
15477;BME280;7840;42.702;23.296;2023-07-28T00:15:11;95161.25;;;15.20;100.00
15477;BME280;7840;42.702;23.296;2023-07-28T00:17:39;95156.50;;;15.07;100.00
15477;BME280;7840;42.702;23.296;2023-07-28T00:20:09;95155.66;;;15.17;100.00
15477;BME280;7840;42.702;23.296;2023-07-28T00:22:38;95155.97;;;15.00;100.00
15477;BME280;7840;42.702;23.296;2023-07-28T00:25:07;95151.16;;;15.07;100.00
15477;BME280;7840;42.702;23.296;2023-07-28T00:27:34;95156.81;;;14.85;100.00
15477;BME280;7840;42.702;23.296;2023-07-28T00:30:02;95154.41;;;14.94;100.00
15477;BME280;7840;42.702;23.296;2023-07-28T00:32:29;95150.34;;;15.17;100.00
15477;BME280;7840;42.702;23.296;2023-07-28T00:34:57;95142.06;;;15.08;100.00
15477;BME280;7840;42.702;23.296;2023-07-28T00:37:24;95146.38;;;14.94;100.00
15477;BME280;7840;42.702;23.296;2023-07-28T00:39:53;95149.69;;;14.55;100.00
15477;BME280;7840;42.702;23.296;2023-07-28T00:42:21;95143.31;;;14.51;100.00
15477;BME280;7840;42.702;23.296;2023-07-28T00:44:48;95163.00;;;14.30;100.00
15477;BME280;7840;42.702;23.296;2023-07-28T00:47:16;95165.16;;;14.58;100.00
15477;BME280;7840;42.702;23.296;2023-07-28T00:49:44;95158.97;;;14.78;100.00
15477;BME280;7840;42.702;23.296;2023-07-28T00:52:11;95156.88;;;14.60;100.00
15477;BME280;7840;42.702;23.296;2023-07-28T00:54:39;95156.06;;;14.64;100.00
15477;BME280;7840;42.702;23.296;2023-07-28T00:57:08;95155.03;;;14.14;100.00
15477;BME280;7840;42.702;23.296;2023-07-28T00:59:35;95152.88;;;14.27;100.00
15477;BME280;7840;42.702;23.296;2023-07-28T01:02:04;95161.66;;;14.12;100.00
15477;BME280;7840;42.702;23.296;2023-07-28T01:04:31;95160.88;;;14.01;100.00
15477;BME280;7840;42.702;23.296;2023-07-28T01:07:07;95156.06;;;13.98;100.00
15477;BME280;7840;42.702;23.296;2023-07-28T01:09:43;95161.94;;;14.00;100.00
15477;BME280;7840;42.702;23.296;2023-07-28T01:12:15;95157.16;;;14.02;100.00
15477;BME280;7840;42.702;23.296;2023-07-28T01:14:44;95153.13;;;14.00;100.00
15477;BME280;7840;42.702;23.296;2023-07-28T01:17:11;95155.03;;;14.14;100.00
15477;BME280;7840;42.702;23.296;2023-07-28T01:19:39;95151.28;;;14.36;100.00
15477;BME280;7840;42.702;23.296;2023-07-28T01:22:26;95155.03;;;14.55;100.00
15477;BME280;7840;42.702;23.296;2023-07-28T01:25:05;95153.41;;;14.44;100.00
15477;BME280;7840;42.702;23.296;2023-07-28T01:27:35;95153.41;;;14.18;100.00
15477;BME280;7840;42.702;23.296;2023-07-28T01:30:09;95156.59;;;14.26;100.00
15477;BME280;7840;42.702;23.296;2023-07-28T01:32:36;95159.81;;;14.43;100.00
15477;BME280;7840;42.702;23.296;2023-07-28T01:35:05;95160.34;;;14.24;100.00
15477;BME280;7840;42.702;23.296;2023-07-28T01:37:32;95159.28;;;14.31;100.00
15477;BME280;7840;42.702;23.296;2023-07-28T01:40:00;95161.94;;;14.26;100.00
15477;BME280;7840;42.702;23.296;2023-07-28T01:42:28;95153.44;;;14.29;100.00
15477;BME280;7840;42.702;23.296;2023-07-28T01:44:57;95165.13;;;14.38;100.00
15477;BME280;7840;42.702;23.296;2023-07-28T01:47:24;95152.59;;;14.43;100.00
15477;BME280;7840;42.702;23.296;2023-07-28T01:49:52;95156.63;;;14.46;100.00
15477;BME280;7840;42.702;23.296;2023-07-28T01:52:20;95159.53;;;14.44;100.00
15477;BME280;7840;42.702;23.296;2023-07-28T01:54:48;95164.06;;;14.08;100.00
15477;BME280;7840;42.702;23.296;2023-07-28T01:57:16;95152.34;;;13.94;100.00
15477;BME280;7840;42.702;23.296;2023-07-28T01:59:44;95163.50;;;13.71;100.00
15477;BME280;7840;42.702;23.296;2023-07-28T02:02:13;95161.91;;;13.75;100.00
15477;BME280;7840;42.702;23.296;2023-07-28T02:04:40;95159.81;;;13.97;100.00
15477;BME280;7840;42.702;23.296;2023-07-28T02:07:08;95151.28;;;14.05;100.00
15477;BME280;7840;42.702;23.296;2023-07-28T02:09:35;95162.50;;;14.07;100.00
15477;BME280;7840;42.702;23.296;2023-07-28T02:12:03;95159.53;;;14.04;100.00
15477;BME280;7840;42.702;23.296;2023-07-28T02:14:31;95143.81;;;13.77;100.00
15477;BME280;7840;42.702;23.296;2023-07-28T02:16:58;95155.22;;;13.57;100.00
15477;BME280;7840;42.702;23.296;2023-07-28T02:19:27;95155.75;;;13.64;100.00
15477;BME280;7840;42.702;23.296;2023-07-28T02:21:55;95156.59;;;13.75;100.00
15477;BME280;7840;42.702;23.296;2023-07-28T02:24:22;95159.25;;;13.80;100.00
15477;BME280;7840;42.702;23.296;2023-07-28T02:26:50;95161.41;;;13.88;100.00
15477;BME280;7840;42.702;23.296;2023-07-28T02:29:17;95171.50;;;13.91;100.00
15477;BME280;7840;42.702;23.296;2023-07-28T02:31:45;95166.69;;;13.78;100.00
15477;BME280;7840;42.702;23.296;2023-07-28T02:34:12;95168.84;;;13.86;100.00
15477;BME280;7840;42.702;23.296;2023-07-28T02:36:41;95172.22;;;13.51;100.00
15477;BME280;7840;42.702;23.296;2023-07-28T02:39:11;95166.59;;;13.37;100.00
15477;BME280;7840;42.702;23.296;2023-07-28T02:41:39;95163.44;;;13.40;100.00
15477;BME280;7840;42.702;23.296;2023-07-28T02:44:06;95165.59;;;13.53;100.00
15477;BME280;7840;42.702;23.296;2023-07-28T02:46:34;95159.22;;;13.69;100.00
15477;BME280;7840;42.702;23.296;2023-07-28T02:49:03;95161.91;;;13.75;100.00
15477;BME280;7840;42.702;23.296;2023-07-28T02:51:30;95160.84;;;13.81;100.00
15477;BME280;7840;42.702;23.296;2023-07-28T02:54:01;95164.59;;;13.80;100.00
15477;BME280;7840;42.702;23.296;2023-07-28T02:56:29;95162.97;;;13.79;100.00
15477;BME280;7840;42.702;23.296;2023-07-28T02:59:00;95162.44;;;13.77;100.00
15477;BME280;7840;42.702;23.296;2023-07-28T03:01:31;95158.69;;;13.62;100.00
15477;BME280;7840;42.702;23.296;2023-07-28T03:04:00;95162.41;;;13.61;100.00
15477;BME280;7840;42.702;23.296;2023-07-28T03:06:27;95158.69;;;13.62;100.00
15477;BME280;7840;42.702;23.296;2023-07-28T03:08:55;95161.09;;;13.59;100.00
15477;BME280;7840;42.702;23.296;2023-07-28T03:11:26;95166.94;;;13.61;100.00
15477;BME280;7840;42.702;23.296;2023-07-28T03:13:53;95167.44;;;13.58;100.00
15477;BME280;7840;42.702;23.296;2023-07-28T03:16:20;95173.31;;;13.65;100.00
15477;BME280;7840;42.702;23.296;2023-07-28T03:18:48;95174.09;;;13.55;100.00
15477;BME280;7840;42.702;23.296;2023-07-28T03:21:16;95181.31;;;13.60;100.00
15477;BME280;7840;42.702;23.296;2023-07-28T03:23:43;95180.44;;;13.39;100.00
15477;BME280;7840;42.702;23.296;2023-07-28T03:26:11;95162.88;;;13.38;100.00
15477;BME280;7840;42.702;23.296;2023-07-28T03:28:40;95169.72;;;13.24;100.00
15477;BME280;7840;42.702;23.296;2023-07-28T03:31:07;95173.47;;;13.28;100.00
15477;BME280;7840;42.702;23.296;2023-07-28T03:33:35;95187.38;;;13.50;100.00
15477;BME280;7840;42.702;23.296;2023-07-28T03:36:02;95180.69;;;13.37;100.00
15477;BME280;7840;42.702;23.296;2023-07-28T03:38:30;95184.16;;;13.38;100.00
15477;BME280;7840;42.702;23.296;2023-07-28T03:40:58;95185.53;;;13.56;100.00
15477;BME280;7840;42.702;23.296;2023-07-28T03:43:25;95189.03;;;13.61;100.00
15477;BME280;7840;42.702;23.296;2023-07-28T03:45:54;95188.97;;;13.51;100.00
15477;BME280;7840;42.702;23.296;2023-07-28T03:48:22;95194.31;;;13.51;100.00
15477;BME280;7840;42.702;23.296;2023-07-28T03:50:49;95192.25;;;13.68;100.00
15477;BME280;7840;42.702;23.296;2023-07-28T03:53:17;95189.59;;;13.79;100.00
15477;BME280;7840;42.702;23.296;2023-07-28T03:55:44;95185.63;;;13.86;100.00
15477;BME280;7840;42.702;23.296;2023-07-28T03:58:12;95188.28;;;13.86;100.00
15477;BME280;7840;42.702;23.296;2023-07-28T04:00:39;95193.34;;;13.98;100.00
15477;BME280;7840;42.702;23.296;2023-07-28T04:03:08;95184.81;;;13.86;100.00
15477;BME280;7840;42.702;23.296;2023-07-28T04:05:37;95177.34;;;13.67;100.00
15477;BME280;7840;42.702;23.296;2023-07-28T04:08:05;95182.38;;;13.64;100.00
15477;BME280;7840;42.702;23.296;2023-07-28T04:10:32;95190.66;;;13.83;100.00
15477;BME280;7840;42.702;23.296;2023-07-28T04:13:00;95194.31;;;13.51;100.00
15477;BME280;7840;42.702;23.296;2023-07-28T04:15:27;95188.41;;;13.34;100.00
15477;BME280;7840;42.702;23.296;2023-07-28T04:17:54;95193.81;;;13.54;100.00
15477;BME280;7840;42.702;23.296;2023-07-28T04:20:23;95193.06;;;13.84;100.00
15477;BME280;7840;42.702;23.296;2023-07-28T04:22:51;95196.53;;;13.80;100.00
15477;BME280;7840;42.702;23.296;2023-07-28T04:25:18;95199.75;;;14.02;100.00
15477;BME280;7840;42.702;23.296;2023-07-28T04:27:46;95199.22;;;14.10;100.00
15477;BME280;7840;42.702;23.296;2023-07-28T04:30:13;95205.09;;;14.12;100.00
15477;BME280;7840;42.702;23.296;2023-07-28T04:32:41;95199.75;;;14.12;100.00
15477;BME280;7840;42.702;23.296;2023-07-28T04:35:08;95196.56;;;14.00;100.00
15477;BME280;7840;42.702;23.296;2023-07-28T04:37:37;95197.13;;;14.07;100.00
15477;BME280;7840;42.702;23.296;2023-07-28T04:40:06;95199.81;;;14.48;100.00
15477;BME280;7840;42.702;23.296;2023-07-28T04:42:34;95192.59;;;14.43;100.00
15477;BME280;7840;42.702;23.296;2023-07-28T04:45:02;95206.19;;;14.57;100.00
15477;BME280;7840;42.702;23.296;2023-07-28T04:47:30;95206.72;;;14.69;100.00
15477;BME280;7840;42.702;23.296;2023-07-28T04:50:00;95205.09;;;14.33;100.00
15477;BME280;7840;42.702;23.296;2023-07-28T04:52:28;95199.28;;;14.56;100.00
15477;BME280;7840;42.702;23.296;2023-07-28T04:54:56;95204.59;;;14.76;100.00
15477;BME280;7840;42.702;23.296;2023-07-28T04:57:24;95200.19;;;15.16;100.00
15477;BME280;7840;42.702;23.296;2023-07-28T04:59:51;95203.34;;;15.33;100.00
15477;BME280;7840;42.702;23.296;2023-07-28T05:02:19;95204.38;;;15.48;100.00
15477;BME280;7840;42.702;23.296;2023-07-28T05:04:49;95199.31;;;15.41;100.00
15477;BME280;7840;42.702;23.296;2023-07-28T05:07:17;95202.69;;;15.72;100.00
15477;BME280;7840;42.702;23.296;2023-07-28T05:09:44;95202.78;;;15.47;100.00
15477;BME280;7840;42.702;23.296;2023-07-28T05:12:13;95202.72;;;15.67;100.00
15477;BME280;7840;42.702;23.296;2023-07-28T05:14:41;95197.91;;;15.64;100.00
15477;BME280;7840;42.702;23.296;2023-07-28T05:17:11;95210.13;;;15.75;100.00
15477;BME280;7840;42.702;23.296;2023-07-28T05:19:39;95192.31;;;15.66;100.00
15477;BME280;7840;42.702;23.296;2023-07-28T05:22:07;95196.94;;;15.94;100.00
15477;BME280;7840;42.702;23.296;2023-07-28T05:24:34;95191.47;;;16.14;100.00
15477;BME280;7840;42.702;23.296;2023-07-28T05:27:02;95185.97;;;16.01;100.00
15477;BME280;7840;42.702;23.296;2023-07-28T05:29:30;95198.94;;;16.18;100.00
15477;BME280;7840;42.702;23.296;2023-07-28T05:31:59;95197.97;;;16.37;100.00
15477;BME280;7840;42.702;23.296;2023-07-28T05:34:26;95194.28;;;16.33;100.00
15477;BME280;7840;42.702;23.296;2023-07-28T05:36:55;95196.72;;;16.59;100.00
15477;BME280;7840;42.702;23.296;2023-07-28T05:39:22;95197.16;;;16.76;100.00
15477;BME280;7840;42.702;23.296;2023-07-28T05:41:50;95191.06;;;16.94;100.00
15477;BME280;7840;42.702;23.296;2023-07-28T05:44:17;95199.75;;;16.81;100.00
15477;BME280;7840;42.702;23.296;2023-07-28T05:46:46;95189.44;;;16.99;100.00
15477;BME280;7840;42.702;23.296;2023-07-28T05:49:14;95180.84;;;17.26;100.00
15477;BME280;7840;42.702;23.296;2023-07-28T05:51:42;95174.03;;;16.85;100.00
15477;BME280;7840;42.702;23.296;2023-07-28T05:54:11;95178.50;;;17.19;100.00
15477;BME280;7840;42.702;23.296;2023-07-28T05:56:40;95174.16;;;17.47;99.43
15477;BME280;7840;42.702;23.296;2023-07-28T05:59:08;95171.28;;;17.62;99.84
15477;BME280;7840;42.702;23.296;2023-07-28T06:01:36;95173.56;;;17.74;98.31
15477;BME280;7840;42.702;23.296;2023-07-28T06:04:05;95171.63;;;17.56;98.73
15477;BME280;7840;42.702;23.296;2023-07-28T06:06:32;95171.81;;;17.83;97.42
15477;BME280;7840;42.702;23.296;2023-07-28T06:09:00;95165.59;;;18.07;95.82
15477;BME280;7840;42.702;23.296;2023-07-28T06:11:27;95165.38;;;18.03;91.84
15477;BME280;7840;42.702;23.296;2023-07-28T06:13:55;95167.19;;;18.08;92.62
15477;BME280;7840;42.702;23.296;2023-07-28T06:16:23;95167.97;;;18.27;90.41
15477;BME280;7840;42.702;23.296;2023-07-28T06:18:51;95163.75;;;18.40;90.83
15477;BME280;7840;42.702;23.296;2023-07-28T06:21:19;95168.56;;;18.56;87.46
15477;BME280;7840;42.702;23.296;2023-07-28T06:23:47;95163.59;;;18.64;87.40
15477;BME280;7840;42.702;23.296;2023-07-28T06:26:14;95169.25;;;18.81;87.82
15477;BME280;7840;42.702;23.296;2023-07-28T06:28:42;95164.28;;;18.88;86.95
15477;BME280;7840;42.702;23.296;2023-07-28T06:31:10;95157.63;;;18.99;84.88
15477;BME280;7840;42.702;23.296;2023-07-28T06:33:37;95160.22;;;19.32;83.64
15477;BME280;7840;42.702;23.296;2023-07-28T06:36:05;95151.56;;;19.35;82.08
15477;BME280;7840;42.702;23.296;2023-07-28T06:38:34;95156.13;;;19.48;81.18
15477;BME280;7840;42.702;23.296;2023-07-28T06:41:02;95158.13;;;19.56;79.82
15477;BME280;7840;42.702;23.296;2023-07-28T06:43:29;95161.22;;;19.63;78.49
15477;BME280;7840;42.702;23.296;2023-07-28T06:45:57;95154.72;;;19.78;77.74
15477;BME280;7840;42.702;23.296;2023-07-28T06:48:24;95156.28;;;19.93;78.70
15477;BME280;7840;42.702;23.296;2023-07-28T06:50:52;95156.72;;;20.09;75.78
15477;BME280;7840;42.702;23.296;2023-07-28T06:53:19;95153.88;;;20.28;73.91
15477;BME280;7840;42.702;23.296;2023-07-28T06:55:49;95152.28;;;20.04;75.45
15477;BME280;7840;42.702;23.296;2023-07-28T06:58:16;95152.03;;;20.14;75.85
15477;BME280;7840;42.702;23.296;2023-07-28T07:00:43;95159.34;;;20.22;73.41
15477;BME280;7840;42.702;23.296;2023-07-28T07:03:11;95158.03;;;20.56;71.55
15477;BME280;7840;42.702;23.296;2023-07-28T07:05:39;95156.19;;;20.43;71.96
15477;BME280;7840;42.702;23.296;2023-07-28T07:08:07;95158.59;;;20.67;70.11
15477;BME280;7840;42.702;23.296;2023-07-28T07:10:35;95160.56;;;20.16;73.37
15477;BME280;7840;42.702;23.296;2023-07-28T07:13:04;95159.38;;;20.45;71.15
15477;BME280;7840;42.702;23.296;2023-07-28T07:15:34;95148.84;;;20.12;74.61
15477;BME280;7840;42.702;23.296;2023-07-28T07:18:02;95149.97;;;20.56;72.91
15477;BME280;7840;42.702;23.296;2023-07-28T07:20:29;95152.44;;;21.06;71.52
15477;BME280;7840;42.702;23.296;2023-07-28T07:22:57;95153.44;;;21.19;65.62
15477;BME280;7840;42.702;23.296;2023-07-28T07:25:24;95153.09;;;21.43;64.34
15477;BME280;7840;42.702;23.296;2023-07-28T07:27:52;95147.75;;;21.77;64.63
15477;BME280;7840;42.702;23.296;2023-07-28T07:30:21;95154.13;;;21.90;64.54
15477;BME280;7840;42.702;23.296;2023-07-28T07:32:48;95158.72;;;22.07;63.67
15477;BME280;7840;42.702;23.296;2023-07-28T07:35:16;95143.66;;;22.23;62.12
15477;BME280;7840;42.702;23.296;2023-07-28T07:37:43;95151.31;;;22.38;62.13
15477;BME280;7840;42.702;23.296;2023-07-28T07:40:12;95160.47;;;22.63;60.51
15477;BME280;7840;42.702;23.296;2023-07-28T07:42:41;95159.00;;;22.83;58.84
15477;BME280;7840;42.702;23.296;2023-07-28T07:45:10;95154.09;;;22.85;60.36
15477;BME280;7840;42.702;23.296;2023-07-28T07:47:40;95149.94;;;22.97;60.16
15477;BME280;7840;42.702;23.296;2023-07-28T07:50:09;95152.84;;;22.57;60.48
15477;BME280;7840;42.702;23.296;2023-07-28T07:52:37;95152.97;;;22.95;59.87
15477;BME280;7840;42.702;23.296;2023-07-28T07:55:05;95161.97;;;23.08;57.29
15477;BME280;7840;42.702;23.296;2023-07-28T07:57:40;95156.16;;;23.35;56.07
15477;BME280;7840;42.702;23.296;2023-07-28T08:00:09;95161.91;;;23.25;56.51
15477;BME280;7840;42.702;23.296;2023-07-28T08:02:38;95161.84;;;23.42;55.34
15477;BME280;7840;42.702;23.296;2023-07-28T08:05:06;95154.28;;;23.27;55.88
15477;BME280;7840;42.702;23.296;2023-07-28T08:07:36;95155.13;;;23.48;56.98
15477;BME280;7840;42.702;23.296;2023-07-28T08:10:04;95151.63;;;23.78;54.72
15477;BME280;7840;42.702;23.296;2023-07-28T08:12:31;95153.38;;;23.82;54.75
15477;BME280;7840;42.702;23.296;2023-07-28T08:14:59;95146.91;;;23.95;56.11
15477;BME280;7840;42.702;23.296;2023-07-28T08:17:27;95148.75;;;24.45;52.73
15477;BME280;7840;42.702;23.296;2023-07-28T08:20:05;95150.13;;;24.85;51.94
15477;BME280;7840;42.702;23.296;2023-07-28T08:22:33;95133.50;;;25.07;51.03
15477;BME280;7840;42.702;23.296;2023-07-28T08:25:00;95138.13;;;25.19;49.55
15477;BME280;7840;42.702;23.296;2023-07-28T08:27:28;95141.63;;;25.31;49.68
15477;BME280;7840;42.702;23.296;2023-07-28T08:29:56;95139.47;;;25.13;48.52
15477;BME280;7840;42.702;23.296;2023-07-28T08:32:23;95137.56;;;25.50;49.61
15477;BME280;7840;42.702;23.296;2023-07-28T08:34:51;95139.97;;;25.76;47.16
15477;BME280;7840;42.702;23.296;2023-07-28T08:37:20;95137.22;;;25.88;47.00
15477;BME280;7840;42.702;23.296;2023-07-28T08:39:47;95136.66;;;25.58;48.60
15477;BME280;7840;42.702;23.296;2023-07-28T08:42:15;95141.94;;;25.67;47.93
15477;BME280;7840;42.702;23.296;2023-07-28T08:44:42;95137.97;;;25.03;50.71
15477;BME280;7840;42.702;23.296;2023-07-28T08:47:12;95133.03;;;25.78;47.68
15477;BME280;7840;42.702;23.296;2023-07-28T08:49:39;95125.72;;;25.42;46.80
15477;BME280;7840;42.702;23.296;2023-07-28T08:52:08;95134.50;;;25.88;47.38
15477;BME280;7840;42.702;23.296;2023-07-28T08:54:37;95122.59;;;26.33;47.10
15477;BME280;7840;42.702;23.296;2023-07-28T08:57:05;95125.63;;;26.71;42.96
15477;BME280;7840;42.702;23.296;2023-07-28T08:59:33;95114.59;;;25.84;44.24
15477;BME280;7840;42.702;23.296;2023-07-28T09:02:01;95112.56;;;25.69;46.25
15477;BME280;7840;42.702;23.296;2023-07-28T09:04:30;95104.59;;;26.40;44.09
15477;BME280;7840;42.702;23.296;2023-07-28T09:06:58;95107.34;;;27.00;42.75
15477;BME280;7840;42.702;23.296;2023-07-28T09:09:32;95094.91;;;27.46;41.32
15477;BME280;7840;42.702;23.296;2023-07-28T09:12:01;95094.69;;;27.71;40.59
15477;BME280;7840;42.702;23.296;2023-07-28T09:14:30;95091.50;;;28.04;39.42
15477;BME280;7840;42.702;23.296;2023-07-28T09:17:07;95088.50;;;28.28;38.59
15477;BME280;7840;42.702;23.296;2023-07-28T09:19:35;95076.63;;;28.37;38.35
15477;BME280;7840;42.702;23.296;2023-07-28T09:22:16;95080.56;;;28.81;37.99
15477;BME280;7840;42.702;23.296;2023-07-28T09:24:43;95071.16;;;28.79;37.96
15477;BME280;7840;42.702;23.296;2023-07-28T09:27:20;95070.22;;;28.91;36.95
15477;BME280;7840;42.702;23.296;2023-07-28T09:29:49;95064.16;;;29.24;37.26
15477;BME280;7840;42.702;23.296;2023-07-28T09:32:17;95054.50;;;29.53;36.69
15477;BME280;7840;42.702;23.296;2023-07-28T09:35:06;95049.72;;;29.50;36.37
15477;BME280;7840;42.702;23.296;2023-07-28T09:37:38;95051.19;;;29.70;35.06
15477;BME280;7840;42.702;23.296;2023-07-28T09:40:09;95039.38;;;29.89;34.65
15477;BME280;7840;42.702;23.296;2023-07-28T09:42:40;95033.47;;;30.13;35.67
15477;BME280;7840;42.702;23.296;2023-07-28T09:45:08;95029.59;;;30.18;35.02
15477;BME280;7840;42.702;23.296;2023-07-28T09:47:37;95023.63;;;30.42;35.07
15477;BME280;7840;42.702;23.296;2023-07-28T09:50:07;95024.78;;;30.78;34.00
15477;BME280;7840;42.702;23.296;2023-07-28T09:52:38;95019.41;;;30.89;33.69
15477;BME280;7840;42.702;23.296;2023-07-28T09:55:08;95020.75;;;31.10;33.35
15477;BME280;7840;42.702;23.296;2023-07-28T09:57:41;95027.97;;;30.84;34.56
15477;BME280;7840;42.702;23.296;2023-07-28T10:00:13;95019.03;;;30.54;34.93
15477;BME280;7840;42.702;23.296;2023-07-28T10:02:41;95018.84;;;30.73;34.27
15477;BME280;7840;42.702;23.296;2023-07-28T10:05:10;95021.28;;;31.26;33.00
15477;BME280;7840;42.702;23.296;2023-07-28T10:07:39;95021.38;;;31.40;32.52
15477;BME280;7840;42.702;23.296;2023-07-28T10:10:10;95015.97;;;31.54;32.02
15477;BME280;7840;42.702;23.296;2023-07-28T10:12:47;95012.81;;;31.49;32.22
15477;BME280;7840;42.702;23.296;2023-07-28T10:15:16;95011.50;;;31.91;32.13
15477;BME280;7840;42.702;23.296;2023-07-28T10:17:45;95010.03;;;32.25;31.40
15477;BME280;7840;42.702;23.296;2023-07-28T10:20:34;95006.59;;;32.46;31.90
15477;BME280;7840;42.702;23.296;2023-07-28T10:23:06;95008.56;;;32.42;30.37
15477;BME280;7840;42.702;23.296;2023-07-28T10:25:35;95002.75;;;32.69;29.79
15477;BME280;7840;42.702;23.296;2023-07-28T10:28:07;95010.03;;;32.15;30.55
15477;BME280;7840;42.702;23.296;2023-07-28T10:30:36;94995.91;;;30.85;32.59
15477;BME280;7840;42.702;23.296;2023-07-28T10:33:05;94993.69;;;31.01;32.71
15477;BME280;7840;42.702;23.296;2023-07-28T10:35:33;94998.78;;;29.87;34.31
15477;BME280;7840;42.702;23.296;2023-07-28T10:38:27;94988.09;;;29.49;35.06
15477;BME280;7840;42.702;23.296;2023-07-28T10:41:06;94990.06;;;29.78;34.47
15477;BME280;7840;42.702;23.296;2023-07-28T10:43:36;94979.50;;;30.07;34.85
15477;BME280;7840;42.702;23.296;2023-07-28T10:46:05;94988.00;;;29.15;35.55
15477;BME280;7840;42.702;23.296;2023-07-28T10:48:35;94977.09;;;30.02;34.54
15477;BME280;7840;42.702;23.296;2023-07-28T10:51:03;94972.88;;;30.86;32.87
15477;BME280;7840;42.702;23.296;2023-07-28T10:53:32;94975.38;;;30.20;34.84
15477;BME280;7840;42.702;23.296;2023-07-28T10:56:02;94975.94;;;29.16;36.55
15477;BME280;7840;42.702;23.296;2023-07-28T10:58:31;94964.22;;;29.42;36.73
15477;BME280;7840;42.702;23.296;2023-07-28T11:01:04;94973.41;;;29.30;35.98
15477;BME280;7840;42.702;23.296;2023-07-28T11:03:33;94954.41;;;29.97;35.38
15477;BME280;7840;42.702;23.296;2023-07-28T11:06:01;94953.66;;;30.78;33.66
15477;BME280;7840;42.702;23.296;2023-07-28T11:08:30;94954.13;;;31.46;32.92
15477;BME280;7840;42.702;23.296;2023-07-28T11:10:59;94944.09;;;31.72;31.85
15477;BME280;7840;42.702;23.296;2023-07-28T11:13:27;94946.03;;;31.75;32.06
15477;BME280;7840;42.702;23.296;2023-07-28T11:15:55;94948.38;;;30.15;32.98
15477;BME280;7840;42.702;23.296;2023-07-28T11:18:26;94937.97;;;30.72;32.48
15477;BME280;7840;42.702;23.296;2023-07-28T11:20:53;94936.25;;;31.77;31.71
15477;BME280;7840;42.702;23.296;2023-07-28T11:23:21;94925.91;;;32.58;29.27
15477;BME280;7840;42.702;23.296;2023-07-28T11:25:50;94925.09;;;33.29;28.75
15477;BME280;7840;42.702;23.296;2023-07-28T11:28:20;94938.88;;;33.00;28.69
15477;BME280;7840;42.702;23.296;2023-07-28T11:30:47;94929.41;;;32.19;29.19
15477;BME280;7840;42.702;23.296;2023-07-28T11:33:15;94912.25;;;30.80;31.18
15477;BME280;7840;42.702;23.296;2023-07-28T11:35:45;94919.16;;;30.63;31.27
15477;BME280;7840;42.702;23.296;2023-07-28T11:38:14;94914.06;;;31.17;31.07
15477;BME280;7840;42.702;23.296;2023-07-28T11:40:42;94918.66;;;31.02;31.63
15477;BME280;7840;42.702;23.296;2023-07-28T11:43:10;94911.75;;;30.67;31.18
15477;BME280;7840;42.702;23.296;2023-07-28T11:45:38;94914.50;;;29.89;32.27
15477;BME280;7840;42.702;23.296;2023-07-28T11:48:06;94909.50;;;30.32;32.05
15477;BME280;7840;42.702;23.296;2023-07-28T11:50:39;94904.63;;;31.91;30.82
15477;BME280;7840;42.702;23.296;2023-07-28T11:55:39;94892.38;;;33.73;28.38
15477;BME280;7840;42.702;23.296;2023-07-28T11:58:08;94901.84;;;33.65;27.97
15477;BME280;7840;42.702;23.296;2023-07-28T12:00:39;94922.03;;;32.91;29.30
15477;BME280;7840;42.702;23.296;2023-07-28T12:03:10;94907.50;;;32.51;30.46
15477;BME280;7840;42.702;23.296;2023-07-28T12:05:39;94909.09;;;32.63;30.61
15477;BME280;7840;42.702;23.296;2023-07-28T12:08:07;94902.81;;;32.91;30.29
15477;BME280;7840;42.702;23.296;2023-07-28T12:10:35;94902.41;;;32.43;28.87
15477;BME280;7840;42.702;23.296;2023-07-28T12:13:08;94895.50;;;31.51;30.65
15477;BME280;7840;42.702;23.296;2023-07-28T12:15:40;94886.91;;;31.52;32.50
15477;BME280;7840;42.702;23.296;2023-07-28T12:18:12;94880.75;;;31.84;30.84
15477;BME280;7840;42.702;23.296;2023-07-28T12:20:42;94887.28;;;31.54;31.13
15477;BME280;7840;42.702;23.296;2023-07-28T12:25:39;94877.88;;;31.48;30.84
15477;BME280;7840;42.702;23.296;2023-07-28T12:28:08;94882.16;;;31.39;32.26
15477;BME280;7840;42.702;23.296;2023-07-28T12:30:36;94880.72;;;31.00;31.62
15477;BME280;7840;42.702;23.296;2023-07-28T12:33:04;94875.72;;;31.13;32.39
15477;BME280;7840;42.702;23.296;2023-07-28T12:35:32;94876.09;;;31.92;32.03
15477;BME280;7840;42.702;23.296;2023-07-28T12:38:01;94863.59;;;32.23;29.91
15477;BME280;7840;42.702;23.296;2023-07-28T12:40:31;94856.19;;;32.48;30.56
15477;BME280;7840;42.702;23.296;2023-07-28T12:42:59;94869.09;;;32.30;30.81
15477;BME280;7840;42.702;23.296;2023-07-28T12:45:29;94862.25;;;31.56;30.23
15477;BME280;7840;42.702;23.296;2023-07-28T12:47:56;94855.72;;;31.85;31.71
15477;BME280;7840;42.702;23.296;2023-07-28T12:50:25;94856.56;;;32.57;30.16
15477;BME280;7840;42.702;23.296;2023-07-28T12:52:52;94861.25;;;32.82;29.49
15477;BME280;7840;42.702;23.296;2023-07-28T12:55:20;94853.41;;;32.73;29.69
15477;BME280;7840;42.702;23.296;2023-07-28T12:57:47;94850.66;;;32.98;29.35
15477;BME280;7840;42.702;23.296;2023-07-28T13:00:15;94846.19;;;33.47;28.91
15477;BME280;7840;42.702;23.296;2023-07-28T13:02:45;94849.50;;;32.78;30.11
15477;BME280;7840;42.702;23.296;2023-07-28T13:05:13;94843.25;;;32.45;30.98
15477;BME280;7840;42.702;23.296;2023-07-28T13:07:43;94837.38;;;32.32;30.91